Wuustwezel, Belgium
Current Conditions -  °F | °C
As of 9:33 AM on Tuesday 21 Oct 2014 (Local Time) from EHWO Reporting Station
Overcast Overcast  
Wind Chill: 55°   Ceiling: 1600
Heat Index: 55°   Visibility: 6mi
Dew Point: 50°   Wind: 14mph
Humidity: 82%   Direction: 200°SSW
Pressure: 29.65"   Gusts: 30mph
Location:  51.39°N, 4.6°E
Report Text: EHWO 210733Z AUTO 20012G26KT 9999 SCT014 OVC016 13/10 Q1004 GRN 22012KT 9999 -RADZ SCT015 SCT035 BKN040 TEMPO 22012G22KT FEW010 BKN012 BKN045
Loading
Personal Weather Stations






























Interactive Weather Map
Tropical Storm Tracking
New forecast layout! Learn more

10-Day Weather Forecast

Advertisements
Track Severe Weather on mobile